sensor_id;sensor_type;location;lat;lon;timestamp;pressure;altitude;pressure_sealevel;temperature;humidity
23361;BME280;11852;50.082;18.554;2023-05-01T00:01:02;99095.5;;;7.54;64.29
23361;BME280;11852;50.082;18.554;2023-05-01T00:02:09;99094.5;;;7.49;64.29
23361;BME280;11852;50.082;18.554;2023-05-01T00:03:19;99092.5;;;7.43;64.61
23361;BME280;11852;50.082;18.554;2023-05-01T00:04:26;99092.0;;;7.43;64.56
23361;BME280;11852;50.082;18.554;2023-05-01T00:05:32;99090.0;;;7.43;64.51
23361;BME280;11852;50.082;18.554;2023-05-01T00:06:39;99090.0;;;7.39;64.22
23361;BME280;11852;50.082;18.554;2023-05-01T00:07:46;99090.5;;;7.41;64.23
23361;BME280;11852;50.082;18.554;2023-05-01T00:08:53;99089.5;;;7.41;64.0
23361;BME280;11852;50.082;18.554;2023-05-01T00:09:59;99088.0;;;7.38;64.03
23361;BME280;11852;50.082;18.554;2023-05-01T00:11:09;99088.0;;;7.38;64.07
23361;BME280;11852;50.082;18.554;2023-05-01T00:12:16;99088.0;;;7.38;64.43
23361;BME280;11852;50.082;18.554;2023-05-01T00:13:22;99088.0;;;7.36;64.44
23361;BME280;11852;50.082;18.554;2023-05-01T00:14:29;99089.0;;;7.33;64.28
23361;BME280;11852;50.082;18.554;2023-05-01T00:15:36;99088.5;;;7.35;64.11
23361;BME280;11852;50.082;18.554;2023-05-01T00:16:43;99087.5;;;7.32;64.2
23361;BME280;11852;50.082;18.554;2023-05-01T00:17:50;99091.0;;;7.32;64.03
23361;BME280;11852;50.082;18.554;2023-05-01T00:18:56;99088.5;;;7.36;64.13
23361;BME280;11852;50.082;18.554;2023-05-01T00:20:03;99089.0;;;7.36;63.99
23361;BME280;11852;50.082;18.554;2023-05-01T00:21:10;99087.0;;;7.35;64.0
23361;BME280;11852;50.082;18.554;2023-05-01T00:22:17;99087.5;;;7.3;64.92
23361;BME280;11852;50.082;18.554;2023-05-01T00:23:24;99087.5;;;7.28;65.07
23361;BME280;11852;50.082;18.554;2023-05-01T00:24:30;99086.5;;;7.24;66.18
23361;BME280;11852;50.082;18.554;2023-05-01T00:25:37;99088.0;;;7.13;66.26
23361;BME280;11852;50.082;18.554;2023-05-01T00:26:44;99082.0;;;7.1;66.26
23361;BME280;11852;50.082;18.554;2023-05-01T00:27:51;99082.5;;;7.04;66.57
23361;BME280;11852;50.082;18.554;2023-05-01T00:28:57;99080.0;;;7.05;66.43
23361;BME280;11852;50.082;18.554;2023-05-01T00:30:05;99079.0;;;7.08;66.01
23361;BME280;11852;50.082;18.554;2023-05-01T00:31:11;99079.5;;;7.1;65.89
23361;BME280;11852;50.082;18.554;2023-05-01T00:32:18;99079.5;;;7.1;65.92
23361;BME280;11852;50.082;18.554;2023-05-01T00:33:25;99078.5;;;7.1;65.65
23361;BME280;11852;50.082;18.554;2023-05-01T00:34:32;99077.0;;;7.09;65.88
23361;BME280;11852;50.082;18.554;2023-05-01T00:35:39;99076.5;;;7.07;65.69
23361;BME280;11852;50.082;18.554;2023-05-01T00:36:45;99078.0;;;7.07;65.51
23361;BME280;11852;50.082;18.554;2023-05-01T00:37:52;99075.5;;;7.08;65.39
23361;BME280;11852;50.082;18.554;2023-05-01T00:38:59;99074.0;;;7.07;65.39
23361;BME280;11852;50.082;18.554;2023-05-01T00:40:06;99073.5;;;7.01;65.58
23361;BME280;11852;50.082;18.554;2023-05-01T00:41:13;99071.5;;;6.98;65.75
23361;BME280;11852;50.082;18.554;2023-05-01T00:42:20;99073.0;;;6.86;65.92
23361;BME280;11852;50.082;18.554;2023-05-01T00:43:27;99072.0;;;6.88;66.0
23361;BME280;11852;50.082;18.554;2023-05-01T00:44:33;99073.0;;;6.86;65.95
23361;BME280;11852;50.082;18.554;2023-05-01T00:45:43;99070.49;;;6.84;65.92
23361;BME280;11852;50.082;18.554;2023-05-01T00:46:47;99069.0;;;6.85;66.09
23361;BME280;11852;50.082;18.554;2023-05-01T00:47:54;99066.0;;;6.86;66.05
23361;BME280;11852;50.082;18.554;2023-05-01T00:49:00;99066.5;;;6.86;65.82
23361;BME280;11852;50.082;18.554;2023-05-01T00:50:07;99063.0;;;6.82;65.94
23361;BME280;11852;50.082;18.554;2023-05-01T00:51:14;99063.0;;;6.84;65.96
23361;BME280;11852;50.082;18.554;2023-05-01T00:52:22;99063.5;;;6.82;65.85
23361;BME280;11852;50.082;18.554;2023-05-01T00:53:28;99064.5;;;6.8;65.96
23361;BME280;11852;50.082;18.554;2023-05-01T00:54:37;99062.5;;;6.79;66.0
23361;BME280;11852;50.082;18.554;2023-05-01T00:55:44;99065.5;;;6.84;65.9
23361;BME280;11852;50.082;18.554;2023-05-01T00:56:51;99063.5;;;6.76;66.08
23361;BME280;11852;50.082;18.554;2023-05-01T00:57:58;99065.0;;;6.76;66.15
23361;BME280;11852;50.082;18.554;2023-05-01T00:59:04;99062.5;;;6.76;65.97
23361;BME280;11852;50.082;18.554;2023-05-01T01:00:11;99060.5;;;6.78;65.94
23361;BME280;11852;50.082;18.554;2023-05-01T01:01:21;99059.5;;;6.79;65.99
23361;BME280;11852;50.082;18.554;2023-05-01T01:02:25;99059.5;;;6.78;65.96
23361;BME280;11852;50.082;18.554;2023-05-01T01:03:32;99057.5;;;6.78;65.91
23361;BME280;11852;50.082;18.554;2023-05-01T01:04:41;99058.5;;;6.77;65.97
23361;BME280;11852;50.082;18.554;2023-05-01T01:05:56;99057.0;;;6.7;66.32
23361;BME280;11852;50.082;18.554;2023-05-01T01:06:57;99056.5;;;6.73;66.11
23361;BME280;11852;50.082;18.554;2023-05-01T01:10:39;99056.5;;;6.66;66.68
23361;BME280;11852;50.082;18.554;2023-05-01T01:13:01;99056.0;;;6.64;66.61
23361;BME280;11852;50.082;18.554;2023-05-01T01:14:08;99053.0;;;6.62;66.39
23361;BME280;11852;50.082;18.554;2023-05-01T01:17:50;99053.5;;;6.59;66.72
23361;BME280;11852;50.082;18.554;2023-05-01T01:19:09;99055.5;;;6.52;66.82
23361;BME280;11852;50.082;18.554;2023-05-01T01:21:22;99051.5;;;6.45;66.71
23361;BME280;11852;50.082;18.554;2023-05-01T01:22:26;99054.51;;;6.44;66.71
23361;BME280;11852;50.082;18.554;2023-05-01T01:25:04;99053.0;;;6.39;67.17
23361;BME280;11852;50.082;18.554;2023-05-01T01:26:12;99052.0;;;6.33;67.58
23361;BME280;11852;50.082;18.554;2023-05-01T01:29:20;99052.5;;;6.31;67.9
23361;BME280;11852;50.082;18.554;2023-05-01T01:34:43;99047.5;;;6.4;67.97
23361;BME280;11852;50.082;18.554;2023-05-01T01:35:49;99044.0;;;6.42;67.74
23361;BME280;11852;50.082;18.554;2023-05-01T01:36:55;99047.0;;;6.44;67.65
23361;BME280;11852;50.082;18.554;2023-05-01T01:40:35;99045.0;;;6.53;67.43
23361;BME280;11852;50.082;18.554;2023-05-01T01:41:41;99046.5;;;6.52;67.51
23361;BME280;11852;50.082;18.554;2023-05-01T01:42:52;99045.49;;;6.56;67.35
23361;BME280;11852;50.082;18.554;2023-05-01T01:43:59;99044.99;;;6.53;67.19
23361;BME280;11852;50.082;18.554;2023-05-01T01:45:05;99047.5;;;6.51;67.22
23361;BME280;11852;50.082;18.554;2023-05-01T01:46:11;99044.99;;;6.43;67.51
23361;BME280;11852;50.082;18.554;2023-05-01T01:47:17;99043.0;;;6.37;67.7
23361;BME280;11852;50.082;18.554;2023-05-01T01:48:25;99044.0;;;6.38;67.7
23361;BME280;11852;50.082;18.554;2023-05-01T01:49:31;99042.51;;;6.39;67.7
23361;BME280;11852;50.082;18.554;2023-05-01T01:50:38;99043.01;;;6.38;68.09
23361;BME280;11852;50.082;18.554;2023-05-01T01:51:46;99042.01;;;6.33;67.79
23361;BME280;11852;50.082;18.554;2023-05-01T01:52:52;99042.01;;;6.29;67.81
23361;BME280;11852;50.082;18.554;2023-05-01T01:53:59;99040.5;;;6.27;68.07
23361;BME280;11852;50.082;18.554;2023-05-01T01:55:07;99039.5;;;6.27;68.33
23361;BME280;11852;50.082;18.554;2023-05-01T01:56:13;99036.5;;;6.24;68.26
23361;BME280;11852;50.082;18.554;2023-05-01T01:57:20;99037.5;;;6.24;68.43
23361;BME280;11852;50.082;18.554;2023-05-01T01:58:26;99034.0;;;6.22;68.65
23361;BME280;11852;50.082;18.554;2023-05-01T01:59:33;99035.0;;;6.21;68.72
23361;BME280;11852;50.082;18.554;2023-05-01T02:00:40;99034.5;;;6.22;68.81
23361;BME280;11852;50.082;18.554;2023-05-01T02:01:46;99034.5;;;6.14;69.1
23361;BME280;11852;50.082;18.554;2023-05-01T02:02:53;99032.49;;;6.15;68.98
23361;BME280;11852;50.082;18.554;2023-05-01T02:04:00;99033.5;;;6.14;68.85
23361;BME280;11852;50.082;18.554;2023-05-01T02:05:07;99033.0;;;6.2;68.66
23361;BME280;11852;50.082;18.554;2023-05-01T02:06:14;99032.49;;;6.22;68.35
23361;BME280;11852;50.082;18.554;2023-05-01T02:07:20;99032.0;;;6.2;68.15
23361;BME280;11852;50.082;18.554;2023-05-01T02:08:28;99031.01;;;6.2;68.18
23361;BME280;11852;50.082;18.554;2023-05-01T02:09:34;99030.51;;;6.2;68.19
23361;BME280;11852;50.082;18.554;2023-05-01T02:10:41;99031.01;;;6.2;68.24
23361;BME280;11852;50.082;18.554;2023-05-01T02:11:47;99028.0;;;6.23;67.9
23361;BME280;11852;50.082;18.554;2023-05-01T02:12:55;99028.0;;;6.19;67.99
23361;BME280;11852;50.082;18.554;2023-05-01T02:14:01;99025.0;;;6.22;67.88
23361;BME280;11852;50.082;18.554;2023-05-01T02:15:08;99022.5;;;6.19;67.74
23361;BME280;11852;50.082;18.554;2023-05-01T02:16:15;99021.0;;;6.22;67.72
23361;BME280;11852;50.082;18.554;2023-05-01T02:17:21;99024.0;;;6.25;67.79
23361;BME280;11852;50.082;18.554;2023-05-01T02:18:28;99022.5;;;6.3;67.69
23361;BME280;11852;50.082;18.554;2023-05-01T02:19:36;99018.5;;;6.26;67.77
23361;BME280;11852;50.082;18.554;2023-05-01T02:20:42;99020.0;;;6.22;67.78
23361;BME280;11852;50.082;18.554;2023-05-01T02:21:54;99018.0;;;6.23;67.94
23361;BME280;11852;50.082;18.554;2023-05-01T02:23:00;99018.5;;;6.17;68.13
23361;BME280;11852;50.082;18.554;2023-05-01T02:24:07;99015.5;;;6.06;68.36
23361;BME280;11852;50.082;18.554;2023-05-01T02:25:14;99012.5;;;6.05;68.74
23361;BME280;11852;50.082;18.554;2023-05-01T02:26:21;99013.5;;;5.96;69.1
23361;BME280;11852;50.082;18.554;2023-05-01T02:27:31;99013.5;;;5.98;69.18
23361;BME280;11852;50.082;18.554;2023-05-01T02:28:37;99013.0;;;5.95;69.48
23361;BME280;11852;50.082;18.554;2023-05-01T02:29:44;99012.0;;;5.94;69.29
23361;BME280;11852;50.082;18.554;2023-05-01T02:30:51;99011.5;;;5.98;69.43
23361;BME280;11852;50.082;18.554;2023-05-01T02:31:58;99011.5;;;6.02;69.43
23361;BME280;11852;50.082;18.554;2023-05-01T02:33:07;99012.5;;;5.98;69.42
23361;BME280;11852;50.082;18.554;2023-05-01T02:34:14;99011.0;;;5.99;69.46
23361;BME280;11852;50.082;18.554;2023-05-01T02:35:21;99010.5;;;6.01;69.65
23361;BME280;11852;50.082;18.554;2023-05-01T02:36:27;99009.0;;;5.97;70.0
23361;BME280;11852;50.082;18.554;2023-05-01T02:37:34;99009.0;;;6.01;69.94
23361;BME280;11852;50.082;18.554;2023-05-01T02:38:41;99010.0;;;6.02;70.08
23361;BME280;11852;50.082;18.554;2023-05-01T02:39:48;99007.49;;;6.05;69.99
23361;BME280;11852;50.082;18.554;2023-05-01T02:40:55;99004.51;;;6.05;70.11
23361;BME280;11852;50.082;18.554;2023-05-01T02:42:01;99006.5;;;6.07;70.14
23361;BME280;11852;50.082;18.554;2023-05-01T02:43:09;99003.0;;;6.09;70.11
23361;BME280;11852;50.082;18.554;2023-05-01T02:44:15;99006.5;;;6.1;70.08
23361;BME280;11852;50.082;18.554;2023-05-01T02:45:22;99004.0;;;6.09;69.97
23361;BME280;11852;50.082;18.554;2023-05-01T02:46:29;99004.51;;;6.07;69.89
23361;BME280;11852;50.082;18.554;2023-05-01T02:47:38;99002.5;;;6.06;70.0
23361;BME280;11852;50.082;18.554;2023-05-01T02:48:42;99001.0;;;6.02;70.14
23361;BME280;11852;50.082;18.554;2023-05-01T02:49:50;98997.0;;;5.97;69.93
23361;BME280;11852;50.082;18.554;2023-05-01T02:50:55;98997.0;;;5.89;70.29
23361;BME280;11852;50.082;18.554;2023-05-01T02:52:02;98996.5;;;5.92;70.44
23361;BME280;11852;50.082;18.554;2023-05-01T02:53:09;98997.5;;;5.9;70.57
23361;BME280;11852;50.082;18.554;2023-05-01T02:54:16;98998.0;;;5.84;70.74
23361;BME280;11852;50.082;18.554;2023-05-01T02:55:23;98998.0;;;5.8;70.85
23361;BME280;11852;50.082;18.554;2023-05-01T02:56:29;98999.5;;;5.72;70.92
23361;BME280;11852;50.082;18.554;2023-05-01T02:57:36;98998.0;;;5.64;71.1
23361;BME280;11852;50.082;18.554;2023-05-01T02:58:43;99000.5;;;5.6;71.19
23361;BME280;11852;50.082;18.554;2023-05-01T02:59:50;98997.5;;;5.52;71.28
23361;BME280;11852;50.082;18.554;2023-05-01T03:00:56;98993.0;;;5.51;71.33
23361;BME280;11852;50.082;18.554;2023-05-01T03:02:03;98990.5;;;5.37;71.58
23361;BME280;11852;50.082;18.554;2023-05-01T03:03:10;98987.5;;;5.39;71.56
23361;BME280;11852;50.082;18.554;2023-05-01T03:04:17;98988.0;;;5.4;71.85
23361;BME280;11852;50.082;18.554;2023-05-01T03:05:23;98988.0;;;5.4;71.67
23361;BME280;11852;50.082;18.554;2023-05-01T03:06:30;98987.0;;;5.4;71.37
23361;BME280;11852;50.082;18.554;2023-05-01T03:07:37;98988.0;;;5.42;71.4
23361;BME280;11852;50.082;18.554;2023-05-01T03:08:44;98986.0;;;5.44;71.29
23361;BME280;11852;50.082;18.554;2023-05-01T03:09:51;98989.5;;;5.45;71.05
23361;BME280;11852;50.082;18.554;2023-05-01T03:10:57;98989.0;;;5.44;70.84
23361;BME280;11852;50.082;18.554;2023-05-01T03:12:04;98989.5;;;5.47;70.9
23361;BME280;11852;50.082;18.554;2023-05-01T03:13:11;98989.0;;;5.45;70.98
23361;BME280;11852;50.082;18.554;2023-05-01T03:14:17;98990.5;;;5.47;71.01
23361;BME280;11852;50.082;18.554;2023-05-01T03:15:24;98993.5;;;5.5;71.13
23361;BME280;11852;50.082;18.554;2023-05-01T03:16:31;98994.5;;;5.49;71.07
23361;BME280;11852;50.082;18.554;2023-05-01T03:17:38;98991.5;;;5.48;70.89
23361;BME280;11852;50.082;18.554;2023-05-01T03:18:44;98987.5;;;5.47;70.68
23361;BME280;11852;50.082;18.554;2023-05-01T03:19:51;98987.5;;;5.4;70.61
23361;BME280;11852;50.082;18.554;2023-05-01T03:20:58;98986.0;;;5.34;70.84
23361;BME280;11852;50.082;18.554;2023-05-01T03:22:05;98985.5;;;5.33;70.63
23361;BME280;11852;50.082;18.554;2023-05-01T03:23:11;98986.0;;;5.3;71.11
23361;BME280;11852;50.082;18.554;2023-05-01T03:24:18;98985.0;;;5.26;71.06
23361;BME280;11852;50.082;18.554;2023-05-01T03:25:25;98982.5;;;5.25;71.03
23361;BME280;11852;50.082;18.554;2023-05-01T03:26:32;98984.5;;;5.27;71.11
23361;BME280;11852;50.082;18.554;2023-05-01T03:27:38;98982.5;;;5.31;71.09
23361;BME280;11852;50.082;18.554;2023-05-01T03:28:45;98985.5;;;5.3;70.83
23361;BME280;11852;50.082;18.554;2023-05-01T03:29:52;98982.99;;;5.29;70.74
23361;BME280;11852;50.082;18.554;2023-05-01T03:30:59;98981.0;;;5.31;70.58
23361;BME280;11852;50.082;18.554;2023-05-01T03:32:06;98982.0;;;5.34;70.6
23361;BME280;11852;50.082;18.554;2023-05-01T03:33:12;98981.5;;;5.32;70.67
23361;BME280;11852;50.082;18.554;2023-05-01T03:34:19;98979.51;;;5.3;70.78
23361;BME280;11852;50.082;18.554;2023-05-01T03:35:26;98981.0;;;5.29;70.62
23361;BME280;11852;50.082;18.554;2023-05-01T03:36:32;98980.5;;;5.32;70.4
23361;BME280;11852;50.082;18.554;2023-05-01T03:37:39;98978.5;;;5.31;70.31
23361;BME280;11852;50.082;18.554;2023-05-01T03:38:46;98982.0;;;5.32;70.39
23361;BME280;11852;50.082;18.554;2023-05-01T03:39:53;98980.5;;;5.35;70.28
23361;BME280;11852;50.082;18.554;2023-05-01T03:40:59;98980.5;;;5.35;70.18
23361;BME280;11852;50.082;18.554;2023-05-01T03:42:06;98982.5;;;5.36;70.04
23361;BME280;11852;50.082;18.554;2023-05-01T03:43:13;98983.0;;;5.4;69.28
23361;BME280;11852;50.082;18.554;2023-05-01T03:44:20;98980.0;;;5.45;69.03
23361;BME280;11852;50.082;18.554;2023-05-01T03:45:26;98978.5;;;5.45;68.67
23361;BME280;11852;50.082;18.554;2023-05-01T03:46:33;98977.5;;;5.5;68.03
23361;BME280;11852;50.082;18.554;2023-05-01T03:47:40;98979.51;;;5.52;67.92
23361;BME280;11852;50.082;18.554;2023-05-01T03:48:47;98978.0;;;5.51;67.86
23361;BME280;11852;50.082;18.554;2023-05-01T03:49:53;98978.0;;;5.52;67.76
23361;BME280;11852;50.082;18.554;2023-05-01T03:51:00;98978.0;;;5.52;67.94
23361;BME280;11852;50.082;18.554;2023-05-01T03:52:07;98979.5;;;5.52;68.08
23361;BME280;11852;50.082;18.554;2023-05-01T03:53:14;98976.5;;;5.53;67.86
23361;BME280;11852;50.082;18.554;2023-05-01T03:54:20;98978.5;;;5.56;67.8
23361;BME280;11852;50.082;18.554;2023-05-01T03:55:27;98977.0;;;5.57;67.75
23361;BME280;11852;50.082;18.554;2023-05-01T03:56:34;98977.0;;;5.61;67.68
23361;BME280;11852;50.082;18.554;2023-05-01T03:57:41;98979.0;;;5.63;67.54
23361;BME280;11852;50.082;18.554;2023-05-01T03:58:47;98978.0;;;5.65;67.5
23361;BME280;11852;50.082;18.554;2023-05-01T03:59:54;98976.0;;;5.66;67.34
23361;BME280;11852;50.082;18.554;2023-05-01T04:01:01;98975.0;;;5.66;67.36
23361;BME280;11852;50.082;18.554;2023-05-01T04:02:08;98975.0;;;5.63;66.96
23361;BME280;11852;50.082;18.554;2023-05-01T04:03:14;98973.0;;;5.63;66.68
23361;BME280;11852;50.082;18.554;2023-05-01T04:04:21;98972.0;;;5.61;66.35
23361;BME280;11852;50.082;18.554;2023-05-01T04:05:28;98973.0;;;5.64;66.18
23361;BME280;11852;50.082;18.554;2023-05-01T04:06:34;98972.5;;;5.68;66.04
23361;BME280;11852;50.082;18.554;2023-05-01T04:07:41;98969.99;;;5.7;66.04
23361;BME280;11852;50.082;18.554;2023-05-01T04:08:48;98970.0;;;5.73;65.79
23361;BME280;11852;50.082;18.554;2023-05-01T04:09:55;98970.49;;;5.74;66.17
23361;BME280;11852;50.082;18.554;2023-05-01T04:11:01;98973.0;;;5.76;66.43
23361;BME280;11852;50.082;18.554;2023-05-01T04:12:08;98974.0;;;5.77;66.6
23361;BME280;11852;50.082;18.554;2023-05-01T04:13:16;98969.5;;;5.77;66.62
23361;BME280;11852;50.082;18.554;2023-05-01T04:14:22;98973.0;;;5.77;66.79
23361;BME280;11852;50.082;18.554;2023-05-01T04:15:29;98970.0;;;5.76;66.69
23361;BME280;11852;50.082;18.554;2023-05-01T04:16:36;98971.5;;;5.77;66.29
23361;BME280;11852;50.082;18.554;2023-05-01T04:17:43;98971.5;;;5.8;66.24
23361;BME280;11852;50.082;18.554;2023-05-01T04:18:49;98972.5;;;5.78;65.98
23361;BME280;11852;50.082;18.554;2023-05-01T04:19:56;98970.5;;;5.8;65.83
23361;BME280;11852;50.082;18.554;2023-05-01T04:21:03;98973.0;;;5.8;65.6
23361;BME280;11852;50.082;18.554;2023-05-01T04:22:09;98973.0;;;5.82;65.08
23361;BME280;11852;50.082;18.554;2023-05-01T04:23:16;98973.0;;;5.82;64.93
23361;BME280;11852;50.082;18.554;2023-05-01T04:24:23;98974.0;;;5.83;64.94
23361;BME280;11852;50.082;18.554;2023-05-01T04:25:30;98973.0;;;5.83;64.96
23361;BME280;11852;50.082;18.554;2023-05-01T04:26:36;98972.5;;;5.85;64.74
23361;BME280;11852;50.082;18.554;2023-05-01T04:27:43;98974.0;;;5.89;64.72
23361;BME280;11852;50.082;18.554;2023-05-01T04:28:50;98976.0;;;5.85;64.4
23361;BME280;11852;50.082;18.554;2023-05-01T04:29:56;98979.0;;;5.89;64.25
23361;BME280;11852;50.082;18.554;2023-05-01T04:31:03;98977.5;;;5.89;64.48
23361;BME280;11852;50.082;18.554;2023-05-01T04:32:10;98981.99;;;5.89;64.47
23361;BME280;11852;50.082;18.554;2023-05-01T04:33:17;98986.0;;;5.9;64.1
23361;BME280;11852;50.082;18.554;2023-05-01T04:34:24;98984.0;;;5.93;64.15
23361;BME280;11852;50.082;18.554;2023-05-01T04:35:30;98982.99;;;5.92;63.64
23361;BME280;11852;50.082;18.554;2023-05-01T04:36:37;98983.0;;;5.94;63.7
23361;BME280;11852;50.082;18.554;2023-05-01T04:37:44;98981.5;;;5.91;63.66
23361;BME280;11852;50.082;18.554;2023-05-01T04:38:51;98980.5;;;5.98;63.62
23361;BME280;11852;50.082;18.554;2023-05-01T04:39:57;98980.5;;;6.01;63.65
23361;BME280;11852;50.082;18.554;2023-05-01T04:41:04;98979.0;;;6.06;63.41
23361;BME280;11852;50.082;18.554;2023-05-01T04:42:11;98979.51;;;6.11;63.29
23361;BME280;11852;50.082;18.554;2023-05-01T04:43:18;98979.51;;;6.02;63.57
23361;BME280;11852;50.082;18.554;2023-05-01T04:44:24;98979.51;;;6.07;63.31
23361;BME280;11852;50.082;18.554;2023-05-01T04:45:31;98979.51;;;6.13;63.1
23361;BME280;11852;50.082;18.554;2023-05-01T04:46:38;98978.5;;;6.22;62.85
23361;BME280;11852;50.082;18.554;2023-05-01T04:47:45;98979.51;;;6.2;62.64
23361;BME280;11852;50.082;18.554;2023-05-01T04:48:51;98979.5;;;6.28;62.55
23361;BME280;11852;50.082;18.554;2023-05-01T04:49:58;98978.5;;;6.36;62.37
23361;BME280;11852;50.082;18.554;2023-05-01T04:51:05;98981.0;;;6.35;62.0
23361;BME280;11852;50.082;18.554;2023-05-01T04:52:11;98981.5;;;6.36;62.11
23361;BME280;11852;50.082;18.554;2023-05-01T04:53:18;98981.0;;;6.39;61.84
23361;BME280;11852;50.082;18.554;2023-05-01T04:54:25;98981.5;;;6.42;61.98
23361;BME280;11852;50.082;18.554;2023-05-01T04:55:32;98985.0;;;6.48;62.08
23361;BME280;11852;50.082;18.554;2023-05-01T04:56:38;98986.5;;;6.57;61.98
23361;BME280;11852;50.082;18.554;2023-05-01T04:57:45;98986.5;;;6.65;62.28
23361;BME280;11852;50.082;18.554;2023-05-01T04:58:52;98987.0;;;6.68;62.24
23361;BME280;11852;50.082;18.554;2023-05-01T04:59:59;98986.5;;;6.7;62.39
23361;BME280;11852;50.082;18.554;2023-05-01T05:01:05;98985.0;;;6.72;62.48
23361;BME280;11852;50.082;18.554;2023-05-01T05:02:14;98987.0;;;6.78;62.11
23361;BME280;11852;50.082;18.554;2023-05-01T05:03:20;98988.5;;;6.8;61.99
23361;BME280;11852;50.082;18.554;2023-05-01T05:04:27;98987.0;;;6.82;61.63
23361;BME280;11852;50.082;18.554;2023-05-01T05:05:34;98990.0;;;6.84;61.81
23361;BME280;11852;50.082;18.554;2023-05-01T05:06:40;98986.0;;;6.89;61.92
23361;BME280;11852;50.082;18.554;2023-05-01T05:07:47;98988.5;;;6.96;61.58
23361;BME280;11852;50.082;18.554;2023-05-01T05:08:54;98987.0;;;7.05;61.64
23361;BME280;11852;50.082;18.554;2023-05-01T05:10:01;98985.0;;;7.07;61.49
23361;BME280;11852;50.082;18.554;2023-05-01T05:11:07;98981.5;;;7.14;60.95
23361;BME280;11852;50.082;18.554;2023-05-01T05:12:14;98982.5;;;7.16;59.93
23361;BME280;11852;50.082;18.554;2023-05-01T05:13:21;98983.5;;;7.19;60.01
23361;BME280;11852;50.082;18.554;2023-05-01T05:14:28;98981.5;;;7.26;59.89
23361;BME280;11852;50.082;18.554;2023-05-01T05:15:34;98982.0;;;7.3;59.94
23361;BME280;11852;50.082;18.554;2023-05-01T05:16:41;98985.0;;;7.36;60.06
23361;BME280;11852;50.082;18.554;2023-05-01T05:17:48;98985.0;;;7.43;59.94
23361;BME280;11852;50.082;18.554;2023-05-01T05:18:55;98982.49;;;7.51;60.03
23361;BME280;11852;50.082;18.554;2023-05-01T05:20:01;98980.51;;;7.51;60.31
23361;BME280;11852;50.082;18.554;2023-05-01T05:21:08;98981.0;;;7.52;60.47
23361;BME280;11852;50.082;18.554;2023-05-01T05:22:15;98981.5;;;7.56;59.63
23361;BME280;11852;50.082;18.554;2023-05-01T05:23:21;98979.51;;;7.62;60.14
23361;BME280;11852;50.082;18.554;2023-05-01T05:24:28;98978.5;;;7.7;60.08
23361;BME280;11852;50.082;18.554;2023-05-01T05:25:35;98981.0;;;7.76;60.08
23361;BME280;11852;50.082;18.554;2023-05-01T05:26:42;98978.5;;;7.8;60.01
23361;BME280;11852;50.082;18.554;2023-05-01T05:27:48;98978.5;;;7.82;59.98
23361;BME280;11852;50.082;18.554;2023-05-01T05:28:55;98981.0;;;7.86;59.66
23361;BME280;11852;50.082;18.554;2023-05-01T05:30:05;98977.5;;;7.84;59.35
23361;BME280;11852;50.082;18.554;2023-05-01T05:31:11;98976.0;;;7.91;58.57
23361;BME280;11852;50.082;18.554;2023-05-01T05:32:18;98975.0;;;7.99;58.42
23361;BME280;11852;50.082;18.554;2023-05-01T05:33:25;98973.5;;;8.01;58.23
23361;BME280;11852;50.082;18.554;2023-05-01T05:34:32;98970.0;;;8.02;57.81
23361;BME280;11852;50.082;18.554;2023-05-01T05:35:39;98974.0;;;8.13;57.57
23361;BME280;11852;50.082;18.554;2023-05-01T05:36:45;98971.5;;;8.18;57.96
23361;BME280;11852;50.082;18.554;2023-05-01T05:37:52;98972.5;;;8.18;58.2
23361;BME280;11852;50.082;18.554;2023-05-01T05:38:59;98971.0;;;8.21;58.37
23361;BME280;11852;50.082;18.554;2023-05-01T05:40:06;98970.0;;;8.19;57.28
23361;BME280;11852;50.082;18.554;2023-05-01T05:41:13;98971.0;;;8.32;57.14
23361;BME280;11852;50.082;18.554;2023-05-01T05:42:20;98969.0;;;8.38;57.08
23361;BME280;11852;50.082;18.554;2023-05-01T05:43:26;98969.5;;;8.47;56.69
23361;BME280;11852;50.082;18.554;2023-05-01T05:44:33;98967.51;;;8.55;56.73
23361;BME280;11852;50.082;18.554;2023-05-01T05:45:40;98964.0;;;8.6;56.9
23361;BME280;11852;50.082;18.554;2023-05-01T05:46:47;98959.0;;;8.63;57.0
23361;BME280;11852;50.082;18.554;2023-05-01T05:47:54;98960.5;;;8.7;56.92
23361;BME280;11852;50.082;18.554;2023-05-01T05:49:00;98961.0;;;8.77;56.94
23361;BME280;11852;50.082;18.554;2023-05-01T05:50:07;98960.0;;;8.81;57.26
23361;BME280;11852;50.082;18.554;2023-05-01T05:51:14;98961.5;;;8.82;57.18
23361;BME280;11852;50.082;18.554;2023-05-01T05:52:21;98964.5;;;8.93;56.84
23361;BME280;11852;50.082;18.554;2023-05-01T05:53:27;98962.5;;;9.01;56.76
23361;BME280;11852;50.082;18.554;2023-05-01T05:54:34;98960.5;;;9.13;56.03
23361;BME280;11852;50.082;18.554;2023-05-01T05:55:41;98957.5;;;9.11;55.28
23361;BME280;11852;50.082;18.554;2023-05-01T05:56:48;98963.0;;;9.14;54.63
23361;BME280;11852;50.082;18.554;2023-05-01T05:57:54;98961.0;;;9.22;54.86
23361;BME280;11852;50.082;18.554;2023-05-01T05:59:01;98961.0;;;9.31;54.95
23361;BME280;11852;50.082;18.554;2023-05-01T06:00:08;98962.0;;;9.39;54.43
23361;BME280;11852;50.082;18.554;2023-05-01T06:01:15;98959.5;;;9.41;54.35
23361;BME280;11852;50.082;18.554;2023-05-01T06:02:22;98958.5;;;9.51;54.53
23361;BME280;11852;50.082;18.554;2023-05-01T06:03:29;98957.0;;;9.65;54.44
23361;BME280;11852;50.082;18.554;2023-05-01T06:04:35;98955.51;;;9.75;54.45
23361;BME280;11852;50.082;18.554;2023-05-01T06:05:42;98952.5;;;9.76;53.81
23361;BME280;11852;50.082;18.554;2023-05-01T06:06:49;98952.0;;;9.82;53.44
23361;BME280;11852;50.082;18.554;2023-05-01T06:07:56;98947.5;;;9.91;52.53
23361;BME280;11852;50.082;18.554;2023-05-01T06:09:02;98948.5;;;9.95;52.82
23361;BME280;11852;50.082;18.554;2023-05-01T06:10:09;98949.5;;;10.02;53.16
23361;BME280;11852;50.082;18.554;2023-05-01T06:11:16;98952.5;;;10.13;53.32
23361;BME280;11852;50.082;18.554;2023-05-01T06:12:23;98949.0;;;10.24;53.56
23361;BME280;11852;50.082;18.554;2023-05-01T06:13:29;98950.5;;;10.28;53.48
23361;BME280;11852;50.082;18.554;2023-05-01T06:14:36;98951.5;;;10.33;53.36
23361;BME280;11852;50.082;18.554;2023-05-01T06:15:43;98953.5;;;10.5;52.67
23361;BME280;11852;50.082;18.554;2023-05-01T06:16:50;98953.0;;;10.63;52.49
23361;BME280;11852;50.082;18.554;2023-05-01T06:17:56;98952.5;;;10.68;51.44